sensor_id;sensor_type;location;lat;lon;timestamp;pressure;altitude;pressure_sealevel;temperature;humidity
66547;BME280;53400;50.364;14.874;2023-11-21T00:01:24;97955.50;;;6.36;100.00
66547;BME280;53400;50.364;14.874;2023-11-21T00:03:51;97951.19;;;6.47;100.00
66547;BME280;53400;50.364;14.874;2023-11-21T00:06:23;97963.81;;;6.28;100.00
66547;BME280;53400;50.364;14.874;2023-11-21T00:08:49;97964.88;;;6.15;100.00
66547;BME280;53400;50.364;14.874;2023-11-21T00:11:15;97960.69;;;6.19;100.00
66547;BME280;53400;50.364;14.874;2023-11-21T00:13:41;97959.19;;;6.24;100.00
66547;BME280;53400;50.364;14.874;2023-11-21T00:16:07;97960.22;;;6.23;100.00
66547;BME280;53400;50.364;14.874;2023-11-21T00:18:39;97953.19;;;6.28;100.00
66547;BME280;53400;50.364;14.874;2023-11-21T00:21:05;97958.94;;;6.49;100.00
66547;BME280;53400;50.364;14.874;2023-11-21T00:23:32;97963.22;;;6.26;100.00
66547;BME280;53400;50.364;14.874;2023-11-21T00:25:58;97956.28;;;6.37;100.00
66547;BME280;53400;50.364;14.874;2023-11-21T00:28:28;97961.03;;;6.23;100.00
66547;BME280;53400;50.364;14.874;2023-11-21T00:30:55;97959.19;;;6.24;100.00
66547;BME280;53400;50.364;14.874;2023-11-21T00:33:24;97966.69;;;6.27;100.00
66547;BME280;53400;50.364;14.874;2023-11-21T00:35:52;97964.50;;;6.35;100.00
66547;BME280;53400;50.364;14.874;2023-11-21T00:38:19;97963.56;;;6.30;100.00
66547;BME280;53400;50.364;14.874;2023-11-21T00:40:47;97960.22;;;6.34;100.00
66547;BME280;53400;50.364;14.874;2023-11-21T00:43:13;97958.84;;;6.32;100.00
66547;BME280;53400;50.364;14.874;2023-11-21T00:45:39;97950.63;;;6.33;100.00
66547;BME280;53400;50.364;14.874;2023-11-21T00:48:06;97950.06;;;6.31;100.00
66547;BME280;53400;50.364;14.874;2023-11-21T00:50:40;97954.16;;;6.51;100.00
66547;BME280;53400;50.364;14.874;2023-11-21T00:53:10;97959.75;;;6.49;100.00
66547;BME280;53400;50.364;14.874;2023-11-21T00:55:40;97953.31;;;6.33;100.00
66547;BME280;53400;50.364;14.874;2023-11-21T00:58:07;97955.09;;;6.44;100.00
66547;BME280;53400;50.364;14.874;2023-11-21T01:00:33;97956.84;;;6.51;100.00
66547;BME280;53400;50.364;14.874;2023-11-21T01:02:59;97964.97;;;6.20;100.00
66547;BME280;53400;50.364;14.874;2023-11-21T01:05:25;97957.69;;;6.28;100.00
66547;BME280;53400;50.364;14.874;2023-11-21T01:07:53;97968.09;;;6.29;100.00
66547;BME280;53400;50.364;14.874;2023-11-21T01:10:23;97966.25;;;6.18;100.00
66547;BME280;53400;50.364;14.874;2023-11-21T01:12:50;97962.09;;;6.34;100.00
66547;BME280;53400;50.364;14.874;2023-11-21T01:15:16;97973.84;;;6.38;100.00
66547;BME280;53400;50.364;14.874;2023-11-21T01:17:43;97970.72;;;6.53;100.00
66547;BME280;53400;50.364;14.874;2023-11-21T01:20:16;97980.22;;;6.37;100.00
66547;BME280;53400;50.364;14.874;2023-11-21T01:22:43;97970.97;;;6.39;100.00
66547;BME280;53400;50.364;14.874;2023-11-21T01:25:10;97976.63;;;6.55;100.00
66547;BME280;53400;50.364;14.874;2023-11-21T01:27:38;97967.72;;;6.49;100.00
66547;BME280;53400;50.364;14.874;2023-11-21T01:30:04;97961.69;;;6.42;100.00
66547;BME280;53400;50.364;14.874;2023-11-21T01:32:33;97968.31;;;6.39;100.00
66547;BME280;53400;50.364;14.874;2023-11-21T01:34:59;97971.19;;;6.38;100.00
66547;BME280;53400;50.364;14.874;2023-11-21T01:37:26;97969.72;;;6.30;100.00
66547;BME280;53400;50.364;14.874;2023-11-21T01:39:57;97973.50;;;6.46;100.00
66547;BME280;53400;50.364;14.874;2023-11-21T01:42:23;97970.97;;;6.39;100.00
66547;BME280;53400;50.364;14.874;2023-11-21T01:44:51;97971.31;;;6.31;100.00
66547;BME280;53400;50.364;14.874;2023-11-21T01:47:17;97966.00;;;6.31;100.00
66547;BME280;53400;50.364;14.874;2023-11-21T01:49:49;97963.22;;;6.50;100.00
66547;BME280;53400;50.364;14.874;2023-11-21T01:52:17;97971.31;;;6.31;100.00
66547;BME280;53400;50.364;14.874;2023-11-21T01:54:46;97986.47;;;6.31;100.00
66547;BME280;53400;50.364;14.874;2023-11-21T01:57:12;97981.97;;;6.31;100.00
66547;BME280;53400;50.364;14.874;2023-11-21T01:59:38;97982.75;;;6.55;100.00
66547;BME280;53400;50.364;14.874;2023-11-21T02:02:09;97978.69;;;6.53;100.00
66547;BME280;53400;50.364;14.874;2023-11-21T02:04:35;97988.59;;;6.69;100.00
66547;BME280;53400;50.364;14.874;2023-11-21T02:07:03;97986.22;;;6.56;100.00
66547;BME280;53400;50.364;14.874;2023-11-21T02:09:32;97983.22;;;6.52;100.00
66547;BME280;53400;50.364;14.874;2023-11-21T02:12:00;97990.47;;;6.57;100.00
66547;BME280;53400;50.364;14.874;2023-11-21T02:14:30;97976.81;;;6.65;100.00
66547;BME280;53400;50.364;14.874;2023-11-21T02:16:57;97984.81;;;6.53;100.00
66547;BME280;53400;50.364;14.874;2023-11-21T02:19:25;97975.84;;;6.42;100.00
66547;BME280;53400;50.364;14.874;2023-11-21T02:22:04;97974.97;;;6.54;100.00
66547;BME280;53400;50.364;14.874;2023-11-21T02:24:33;97980.41;;;6.71;100.00
66547;BME280;53400;50.364;14.874;2023-11-21T02:26:59;97974.13;;;6.77;100.00
66547;BME280;53400;50.364;14.874;2023-11-21T02:29:25;97978.56;;;6.59;100.00
66547;BME280;53400;50.364;14.874;2023-11-21T02:31:55;97970.81;;;6.58;100.00
66547;BME280;53400;50.364;14.874;2023-11-21T02:34:22;97973.38;;;6.53;100.00
66547;BME280;53400;50.364;14.874;2023-11-21T02:36:49;97972.78;;;6.62;100.00
66547;BME280;53400;50.364;14.874;2023-11-21T02:39:18;97971.84;;;6.57;100.00
66547;BME280;53400;50.364;14.874;2023-11-21T02:42:00;97969.75;;;6.71;100.00
66547;BME280;53400;50.364;14.874;2023-11-21T02:44:26;97965.97;;;6.55;100.00
66547;BME280;53400;50.364;14.874;2023-11-21T02:46:54;97966.00;;;6.43;100.00
66547;BME280;53400;50.364;14.874;2023-11-21T02:49:20;97963.09;;;6.44;100.00
66547;BME280;53400;50.364;14.874;2023-11-21T02:51:49;97963.81;;;6.40;100.00
66547;BME280;53400;50.364;14.874;2023-11-21T02:54:20;97966.34;;;6.47;100.00
66547;BME280;53400;50.364;14.874;2023-11-21T02:56:48;97964.81;;;6.51;100.00
66547;BME280;53400;50.364;14.874;2023-11-21T02:59:17;97958.56;;;6.45;100.00
66547;BME280;53400;50.364;14.874;2023-11-21T03:01:56;97962.16;;;6.39;100.00
66547;BME280;53400;50.364;14.874;2023-11-21T03:04:23;97960.22;;;6.46;100.00
66547;BME280;53400;50.364;14.874;2023-11-21T03:06:50;97962.16;;;6.51;100.00
66547;BME280;53400;50.364;14.874;2023-11-21T03:09:17;97960.75;;;6.48;100.00
66547;BME280;53400;50.364;14.874;2023-11-21T03:11:48;97966.22;;;6.41;100.00
66547;BME280;53400;50.364;14.874;2023-11-21T03:14:18;97964.94;;;6.56;100.00
66547;BME280;53400;50.364;14.874;2023-11-21T03:16:44;97972.25;;;6.49;100.00
66547;BME280;53400;50.364;14.874;2023-11-21T03:19:13;97971.66;;;6.35;100.00
66547;BME280;53400;50.364;14.874;2023-11-21T03:21:41;97976.97;;;6.47;100.00
66547;BME280;53400;50.364;14.874;2023-11-21T03:24:07;97967.16;;;6.35;100.00
66547;BME280;53400;50.364;14.874;2023-11-21T03:26:34;97961.69;;;6.42;100.00
66547;BME280;53400;50.364;14.874;2023-11-21T03:29:00;97969.47;;;6.43;100.00
66547;BME280;53400;50.364;14.874;2023-11-21T03:31:28;97972.13;;;6.32;100.00
66547;BME280;53400;50.364;14.874;2023-11-21T03:33:55;97979.44;;;6.36;100.00
66547;BME280;53400;50.364;14.874;2023-11-21T03:36:29;97985.56;;;6.37;100.00
66547;BME280;53400;50.364;14.874;2023-11-21T03:38:56;97981.25;;;6.36;100.00
66547;BME280;53400;50.364;14.874;2023-11-21T03:41:23;97983.09;;;6.35;100.00
66547;BME280;53400;50.364;14.874;2023-11-21T03:43:53;97978.72;;;6.41;100.00
66547;BME280;53400;50.364;14.874;2023-11-21T03:46:20;97984.84;;;6.41;100.00
66547;BME280;53400;50.364;14.874;2023-11-21T03:48:47;97985.38;;;6.67;100.00
66547;BME280;53400;50.364;14.874;2023-11-21T03:51:15;97987.72;;;6.63;100.00
66547;BME280;53400;50.364;14.874;2023-11-21T03:53:41;97994.66;;;6.41;100.00
66547;BME280;53400;50.364;14.874;2023-11-21T03:56:08;97994.38;;;6.66;100.00
66547;BME280;53400;50.364;14.874;2023-11-21T03:58:34;98012.28;;;7.23;100.00
66547;BME280;53400;50.364;14.874;2023-11-21T04:01:00;98001.66;;;6.82;100.00
66547;BME280;53400;50.364;14.874;2023-11-21T04:03:27;98006.91;;;6.42;100.00
66547;BME280;53400;50.364;14.874;2023-11-21T04:05:56;98003.91;;;6.38;100.00
66547;BME280;53400;50.364;14.874;2023-11-21T04:08:24;98002.06;;;6.51;100.00
66547;BME280;53400;50.364;14.874;2023-11-21T04:10:52;98011.53;;;6.58;100.00
66547;BME280;53400;50.364;14.874;2023-11-21T04:13:19;98009.09;;;6.57;100.00
66547;BME280;53400;50.364;14.874;2023-11-21T04:15:48;98013.41;;;6.58;100.00
66547;BME280;53400;50.364;14.874;2023-11-21T04:18:19;98000.47;;;6.38;100.00
66547;BME280;53400;50.364;14.874;2023-11-21T04:20:45;98001.72;;;6.24;100.00
66547;BME280;53400;50.364;14.874;2023-11-21T04:23:15;98013.28;;;6.41;100.00
66547;BME280;53400;50.364;14.874;2023-11-21T04:25:42;98007.84;;;6.48;100.00
66547;BME280;53400;50.364;14.874;2023-11-21T04:28:09;98001.38;;;6.43;100.00
66547;BME280;53400;50.364;14.874;2023-11-21T04:30:37;98004.22;;;6.77;100.00
66547;BME280;53400;50.364;14.874;2023-11-21T04:33:05;98009.94;;;6.46;100.00
66547;BME280;53400;50.364;14.874;2023-11-21T04:35:31;98012.50;;;6.29;100.00
66547;BME280;53400;50.364;14.874;2023-11-21T04:37:57;98019.78;;;6.33;100.00
66547;BME280;53400;50.364;14.874;2023-11-21T04:40:25;98017.59;;;6.18;100.00
66547;BME280;53400;50.364;14.874;2023-11-21T04:42:52;98031.69;;;6.42;100.00
66547;BME280;53400;50.364;14.874;2023-11-21T04:45:18;98029.25;;;6.41;100.00
66547;BME280;53400;50.364;14.874;2023-11-21T04:47:47;98034.81;;;6.28;100.00
66547;BME280;53400;50.364;14.874;2023-11-21T04:50:24;98030.63;;;6.20;100.00
66547;BME280;53400;50.364;14.874;2023-11-21T04:52:52;98036.28;;;6.24;100.00
66547;BME280;53400;50.364;14.874;2023-11-21T04:55:19;98042.41;;;6.36;100.00
66547;BME280;53400;50.364;14.874;2023-11-21T04:57:51;98032.16;;;6.16;100.00
66547;BME280;53400;50.364;14.874;2023-11-21T05:00:18;98026.34;;;6.07;100.00
66547;BME280;53400;50.364;14.874;2023-11-21T05:02:44;98014.13;;;6.18;100.00
66547;BME280;53400;50.364;14.874;2023-11-21T05:05:10;98014.06;;;5.83;100.00
66547;BME280;53400;50.364;14.874;2023-11-21T05:07:37;98023.41;;;5.85;100.00
66547;BME280;53400;50.364;14.874;2023-11-21T05:10:04;98022.81;;;5.83;100.00
66547;BME280;53400;50.364;14.874;2023-11-21T05:12:34;98021.97;;;6.01;100.00
66547;BME280;53400;50.364;14.874;2023-11-21T05:15:06;98028.31;;;6.00;100.00
66547;BME280;53400;50.364;14.874;2023-11-21T05:17:35;98027.97;;;6.08;100.00
66547;BME280;53400;50.364;14.874;2023-11-21T05:20:03;98025.31;;;5.96;100.00
66547;BME280;53400;50.364;14.874;2023-11-21T05:22:32;98022.31;;;6.16;100.00
66547;BME280;53400;50.364;14.874;2023-11-21T05:24:59;98031.56;;;6.26;100.00
66547;BME280;53400;50.364;14.874;2023-11-21T05:27:25;98030.53;;;6.15;100.00
66547;BME280;53400;50.364;14.874;2023-11-21T05:30:01;98026.69;;;6.11;100.00
66547;BME280;53400;50.364;14.874;2023-11-21T05:32:33;98034.09;;;6.56;100.00
66547;BME280;53400;50.364;14.874;2023-11-21T05:35:00;98034.22;;;6.26;100.00
66547;BME280;53400;50.364;14.874;2023-11-21T05:37:26;98040.59;;;6.13;100.00
66547;BME280;53400;50.364;14.874;2023-11-21T05:39:56;98034.00;;;6.04;100.00
66547;BME280;53400;50.364;14.874;2023-11-21T05:42:22;98040.16;;;5.86;100.00
66547;BME280;53400;50.364;14.874;2023-11-21T05:44:49;98037.78;;;6.08;100.00
66547;BME280;53400;50.364;14.874;2023-11-21T05:47:15;98036.41;;;5.93;100.00
66547;BME280;53400;50.364;14.874;2023-11-21T05:49:43;98043.13;;;6.19;100.00
66547;BME280;53400;50.364;14.874;2023-11-21T05:52:21;98039.78;;;6.12;100.00
66547;BME280;53400;50.364;14.874;2023-11-21T05:54:47;98044.38;;;6.05;100.00
66547;BME280;53400;50.364;14.874;2023-11-21T05:57:13;98051.34;;;6.18;100.00
66547;BME280;53400;50.364;14.874;2023-11-21T05:59:39;98044.81;;;5.90;100.00
66547;BME280;53400;50.364;14.874;2023-11-21T06:02:08;98056.72;;;5.88;100.00
66547;BME280;53400;50.364;14.874;2023-11-21T06:04:35;98049.97;;;5.73;100.00
66547;BME280;53400;50.364;14.874;2023-11-21T06:07:06;98052.19;;;5.88;100.00
66547;BME280;53400;50.364;14.874;2023-11-21T06:09:33;98058.03;;;5.97;100.00
66547;BME280;53400;50.364;14.874;2023-11-21T06:12:00;98063.06;;;5.57;100.00
66547;BME280;53400;50.364;14.874;2023-11-21T06:14:27;98069.25;;;5.81;100.00
66547;BME280;53400;50.364;14.874;2023-11-21T06:16:53;98066.50;;;5.75;100.00
66547;BME280;53400;50.364;14.874;2023-11-21T06:19:19;98068.22;;;5.70;100.00
66547;BME280;53400;50.364;14.874;2023-11-21T06:21:53;98069.84;;;5.83;100.00
66547;BME280;53400;50.364;14.874;2023-11-21T06:24:30;98074.22;;;5.77;100.00
66547;BME280;53400;50.364;14.874;2023-11-21T06:26:58;98075.50;;;5.74;100.00
66547;BME280;53400;50.364;14.874;2023-11-21T06:29:24;98074.25;;;5.89;100.00
66547;BME280;53400;50.364;14.874;2023-11-21T06:31:51;98089.38;;;5.77;100.00
66547;BME280;53400;50.364;14.874;2023-11-21T06:34:20;98088.81;;;5.86;100.00
66547;BME280;53400;50.364;14.874;2023-11-21T06:36:51;98091.31;;;5.81;100.00
66547;BME280;53400;50.364;14.874;2023-11-21T06:39:18;98090.97;;;5.78;100.00
66547;BME280;53400;50.364;14.874;2023-11-21T06:41:50;98095.41;;;5.53;100.00
66547;BME280;53400;50.364;14.874;2023-11-21T06:44:18;98092.47;;;5.73;100.00
66547;BME280;53400;50.364;14.874;2023-11-21T06:47:03;98091.56;;;5.80;100.00
66547;BME280;53400;50.364;14.874;2023-11-21T06:49:30;98089.56;;;5.75;100.00
66547;BME280;53400;50.364;14.874;2023-11-21T06:51:57;98095.28;;;5.79;100.00
66547;BME280;53400;50.364;14.874;2023-11-21T06:54:26;98097.00;;;5.73;100.00
66547;BME280;53400;50.364;14.874;2023-11-21T06:56:53;98095.78;;;5.57;100.00
66547;BME280;53400;50.364;14.874;2023-11-21T06:59:20;98091.72;;;5.55;100.00
66547;BME280;53400;50.364;14.874;2023-11-21T07:01:49;98098.94;;;5.47;100.00
66547;BME280;53400;50.364;14.874;2023-11-21T07:04:30;98095.53;;;5.59;100.00
66547;BME280;53400;50.364;14.874;2023-11-21T07:06:56;98106.34;;;5.45;100.00
66547;BME280;53400;50.364;14.874;2023-11-21T07:09:22;98106.88;;;5.66;100.00
66547;BME280;53400;50.364;14.874;2023-11-21T07:12:01;98107.16;;;5.76;100.00
66547;BME280;53400;50.364;14.874;2023-11-21T07:14:33;98106.38;;;5.87;100.00
66547;BME280;53400;50.364;14.874;2023-11-21T07:16:58;98109.94;;;5.81;100.00
66547;BME280;53400;50.364;14.874;2023-11-21T07:19:26;98111.88;;;5.74;100.00
66547;BME280;53400;50.364;14.874;2023-11-21T07:22:11;98115.97;;;5.88;100.00
66547;BME280;53400;50.364;14.874;2023-11-21T07:24:37;98114.00;;;5.84;100.00
66547;BME280;53400;50.364;14.874;2023-11-21T07:27:09;98106.97;;;5.89;100.00
66547;BME280;53400;50.364;14.874;2023-11-21T07:29:54;98117.16;;;5.62;100.00
66547;BME280;53400;50.364;14.874;2023-11-21T07:32:24;98113.88;;;5.79;100.00
66547;BME280;53400;50.364;14.874;2023-11-21T07:34:51;98117.25;;;5.86;100.00
66547;BME280;53400;50.364;14.874;2023-11-21T07:37:17;98121.28;;;5.88;100.00
66547;BME280;53400;50.364;14.874;2023-11-21T07:39:50;98119.22;;;5.90;100.00
66547;BME280;53400;50.364;14.874;2023-11-21T07:42:23;98121.47;;;5.93;100.00
66547;BME280;53400;50.364;14.874;2023-11-21T07:44:50;98122.31;;;6.06;100.00
66547;BME280;53400;50.364;14.874;2023-11-21T07:47:16;98117.31;;;5.97;100.00
66547;BME280;53400;50.364;14.874;2023-11-21T07:49:52;98121.91;;;6.02;100.00
66547;BME280;53400;50.364;14.874;2023-11-21T07:52:18;98123.50;;;5.91;100.00
66547;BME280;53400;50.364;14.874;2023-11-21T07:54:47;98126.72;;;6.12;100.00
66547;BME280;53400;50.364;14.874;2023-11-21T07:57:13;98128.81;;;6.45;100.00
66547;BME280;53400;50.364;14.874;2023-11-21T07:59:41;98128.94;;;6.38;100.00
66547;BME280;53400;50.364;14.874;2023-11-21T08:02:07;98130.91;;;6.31;100.00
66547;BME280;53400;50.364;14.874;2023-11-21T08:04:35;98122.94;;;6.43;100.00
66547;BME280;53400;50.364;14.874;2023-11-21T08:07:01;98122.50;;;6.70;100.00
66547;BME280;53400;50.364;14.874;2023-11-21T08:09:28;98122.47;;;6.46;100.00
66547;BME280;53400;50.364;14.874;2023-11-21T08:11:56;98116.22;;;6.52;100.00
66547;BME280;53400;50.364;14.874;2023-11-21T08:14:26;98121.22;;;6.49;100.00
66547;BME280;53400;50.364;14.874;2023-11-21T08:16:56;98130.34;;;6.53;100.00
66547;BME280;53400;50.364;14.874;2023-11-21T08:19:24;98119.69;;;6.64;100.00
66547;BME280;53400;50.364;14.874;2023-11-21T08:21:53;98126.16;;;6.69;100.00
66547;BME280;53400;50.364;14.874;2023-11-21T08:24:21;98124.69;;;6.73;100.00
66547;BME280;53400;50.364;14.874;2023-11-21T08:26:47;98133.56;;;6.78;100.00
66547;BME280;53400;50.364;14.874;2023-11-21T08:29:13;98132.53;;;6.79;100.00
66547;BME280;53400;50.364;14.874;2023-11-21T08:31:40;98133.22;;;6.86;100.00
66547;BME280;53400;50.364;14.874;2023-11-21T08:34:08;98129.88;;;6.91;100.00
66547;BME280;53400;50.364;14.874;2023-11-21T08:36:34;98130.34;;;6.88;100.00
66547;BME280;53400;50.364;14.874;2023-11-21T08:39:01;98134.94;;;7.04;100.00
66547;BME280;53400;50.364;14.874;2023-11-21T08:41:29;98136.41;;;7.12;100.00
66547;BME280;53400;50.364;14.874;2023-11-21T08:43:56;98137.13;;;7.19;100.00
66547;BME280;53400;50.364;14.874;2023-11-21T08:46:23;98148.66;;;7.37;100.00
66547;BME280;53400;50.364;14.874;2023-11-21T08:48:51;98145.56;;;7.28;100.00
66547;BME280;53400;50.364;14.874;2023-11-21T08:51:22;98149.63;;;7.19;100.00
66547;BME280;53400;50.364;14.874;2023-11-21T08:53:50;98149.03;;;7.28;100.00
66547;BME280;53400;50.364;14.874;2023-11-21T08:56:27;98157.81;;;7.41;100.00
66547;BME280;53400;50.364;14.874;2023-11-21T08:58:53;98153.59;;;7.56;100.00
66547;BME280;53400;50.364;14.874;2023-11-21T09:01:27;98149.81;;;7.41;100.00
66547;BME280;53400;50.364;14.874;2023-11-21T09:03:59;98146.97;;;7.59;100.00
66547;BME280;53400;50.364;14.874;2023-11-21T09:06:29;98164.72;;;7.53;100.00
66547;BME280;53400;50.364;14.874;2023-11-21T09:08:55;98160.31;;;7.59;100.00
66547;BME280;53400;50.364;14.874;2023-11-21T09:11:21;98169.84;;;7.84;100.00
66547;BME280;53400;50.364;14.874;2023-11-21T09:13:50;98168.44;;;7.81;100.00
66547;BME280;53400;50.364;14.874;2023-11-21T09:16:20;98175.06;;;7.78;100.00
66547;BME280;53400;50.364;14.874;2023-11-21T09:18:48;98176.78;;;7.85;100.00
66547;BME280;53400;50.364;14.874;2023-11-21T09:21:14;98172.06;;;7.75;100.00
66547;BME280;53400;50.364;14.874;2023-11-21T09:23:52;98182.53;;;7.65;100.00
66547;BME280;53400;50.364;14.874;2023-11-21T09:26:20;98187.31;;;7.51;100.00
66547;BME280;53400;50.364;14.874;2023-11-21T09:28:47;98175.44;;;7.70;100.00
66547;BME280;53400;50.364;14.874;2023-11-21T09:31:13;98183.91;;;7.67;100.00
66547;BME280;53400;50.364;14.874;2023-11-21T09:33:42;98168.00;;;7.72;100.00
66547;BME280;53400;50.364;14.874;2023-11-21T09:36:11;98179.53;;;7.90;100.00
66547;BME280;53400;50.364;14.874;2023-11-21T09:38:42;98179.34;;;7.79;100.00
66547;BME280;53400;50.364;14.874;2023-11-21T09:41:14;98174.69;;;7.87;100.00
66547;BME280;53400;50.364;14.874;2023-11-21T09:46:29;98184.31;;;8.16;100.00
66547;BME280;53400;50.364;14.874;2023-11-21T09:48:58;98187.13;;;8.10;100.00
66547;BME280;53400;50.364;14.874;2023-11-21T09:51:30;98187.44;;;7.85;100.00
66547;BME280;53400;50.364;14.874;2023-11-21T09:54:03;98194.78;;;7.77;100.00
66547;BME280;53400;50.364;14.874;2023-11-21T09:56:32;98193.53;;;7.97;100.00
66547;BME280;53400;50.364;14.874;2023-11-21T09:58:59;98191.53;;;8.04;100.00
66547;BME280;53400;50.364;14.874;2023-11-21T10:01:31;98196.38;;;7.78;100.00
66547;BME280;53400;50.364;14.874;2023-11-21T10:04:01;98200.09;;;7.77;100.00
66547;BME280;53400;50.364;14.874;2023-11-21T10:06:28;98199.28;;;7.77;100.00
66547;BME280;53400;50.364;14.874;2023-11-21T10:08:57;98192.50;;;7.98;100.00
66547;BME280;53400;50.364;14.874;2023-11-21T10:11:27;98197.84;;;7.98;100.00
66547;BME280;53400;50.364;14.874;2023-11-21T10:13:59;98199.78;;;8.02;100.00
66547;BME280;53400;50.364;14.874;2023-11-21T10:16:26;98195.25;;;8.03;100.00
66547;BME280;53400;50.364;14.874;2023-11-21T10:18:57;98197.81;;;8.26;100.00
66547;BME280;53400;50.364;14.874;2023-11-21T10:21:24;98202.72;;;8.18;100.00
66547;BME280;53400;50.364;14.874;2023-11-21T10:23:54;98196.59;;;7.89;100.00
66547;BME280;53400;50.364;14.874;2023-11-21T10:26:22;98200.50;;;7.98;100.00
66547;BME280;53400;50.364;14.874;2023-11-21T10:28:57;98211.25;;;8.03;100.00
66547;BME280;53400;50.364;14.874;2023-11-21T10:31:28;98211.69;;;8.12;100.00
66547;BME280;53400;50.364;14.874;2023-11-21T10:33:59;98203.81;;;8.05;100.00
66547;BME280;53400;50.364;14.874;2023-11-21T10:36:35;98203.66;;;7.95;100.00
66547;BME280;53400;50.364;14.874;2023-11-21T10:39:03;98200.47;;;8.26;100.00
66547;BME280;53400;50.364;14.874;2023-11-21T10:41:29;98196.41;;;8.07;100.00
66547;BME280;53400;50.364;14.874;2023-11-21T10:43:57;98201.00;;;7.83;100.00
66547;BME280;53400;50.364;14.874;2023-11-21T10:46:25;98212.47;;;7.84;100.00
66547;BME280;53400;50.364;14.874;2023-11-21T10:48:56;98205.84;;;7.98;100.00
66547;BME280;53400;50.364;14.874;2023-11-21T10:51:43;98200.66;;;7.91;100.00
66547;BME280;53400;50.364;14.874;2023-11-21T10:54:24;98205.22;;;8.08;100.00
66547;BME280;53400;50.364;14.874;2023-11-21T10:56:56;98200.03;;;8.01;100.00
66547;BME280;53400;50.364;14.874;2023-11-21T10:59:26;98201.06;;;8.00;100.00
66547;BME280;53400;50.364;14.874;2023-11-21T11:01:57;98207.59;;;7.92;100.00
66547;BME280;53400;50.364;14.874;2023-11-21T11:04:27;98197.66;;;7.76;100.00
66547;BME280;53400;50.364;14.874;2023-11-21T11:06:55;98200.25;;;7.99;100.00
66547;BME280;53400;50.364;14.874;2023-11-21T11:09:30;98204.94;;;7.92;100.00
66547;BME280;53400;50.364;14.874;2023-11-21T11:12:02;98197.06;;;7.86;100.00
66547;BME280;53400;50.364;14.874;2023-11-21T11:14:32;98203.09;;;7.81;100.00
66547;BME280;53400;50.364;14.874;2023-11-21T11:17:02;98202.19;;;7.75;100.00
66547;BME280;53400;50.364;14.874;2023-11-21T11:19:31;98204.41;;;7.67;100.00
66547;BME280;53400;50.364;14.874;2023-11-21T11:22:08;98199.00;;;7.62;100.00
66547;BME280;53400;50.364;14.874;2023-11-21T11:24:53;98195.38;;;7.68;100.00
66547;BME280;53400;50.364;14.874;2023-11-21T11:27:34;98200.41;;;7.93;100.00
66547;BME280;53400;50.364;14.874;2023-11-21T11:30:16;98199.81;;;7.62;100.00
66547;BME280;53400;50.364;14.874;2023-11-21T11:32:52;98199.31;;;7.65;100.00
66547;BME280;53400;50.364;14.874;2023-11-21T11:35:29;98197.59;;;7.59;100.00
66547;BME280;53400;50.364;14.874;2023-11-21T11:38:09;98203.28;;;7.51;100.00
66547;BME280;53400;50.364;14.874;2023-11-21T11:40:40;98194.94;;;7.59;100.00
66547;BME280;53400;50.364;14.874;2023-11-21T11:43:07;98203.38;;;7.68;100.00
66547;BME280;53400;50.364;14.874;2023-11-21T11:45:35;98196.22;;;7.56;100.00
66547;BME280;53400;50.364;14.874;2023-11-21T11:48:05;98198.41;;;7.59;100.00
66547;BME280;53400;50.364;14.874;2023-11-21T11:50:33;98202.22;;;7.64;100.00
66547;BME280;53400;50.364;14.874;2023-11-21T11:53:12;98205.91;;;7.74;100.00
66547;BME280;53400;50.364;14.874;2023-11-21T11:55:39;98193.72;;;7.78;100.00
66547;BME280;53400;50.364;14.874;2023-11-21T11:58:08;98203.22;;;7.86;100.00
66547;BME280;53400;50.364;14.874;2023-11-21T12:00:37;98200.06;;;7.89;100.00
66547;BME280;53400;50.364;14.874;2023-11-21T12:03:07;98203.84;;;7.65;100.00
66547;BME280;53400;50.364;14.874;2023-11-21T12:05:35;98206.66;;;7.58;100.00
66547;BME280;53400;50.364;14.874;2023-11-21T12:08:05;98200.53;;;7.46;100.00
66547;BME280;53400;50.364;14.874;2023-11-21T12:10:33;98199.50;;;7.47;100.00
66547;BME280;53400;50.364;14.874;2023-11-21T12:13:01;98199.97;;;7.44;100.00
66547;BME280;53400;50.364;14.874;2023-11-21T12:15:28;98204.50;;;7.20;100.00
66547;BME280;53400;50.364;14.874;2023-11-21T12:17:58;98205.16;;;7.39;100.00
66547;BME280;53400;50.364;14.874;2023-11-21T12:20:28;98202.28;;;7.40;100.00
66547;BME280;53400;50.364;14.874;2023-11-21T12:22:55;98202.63;;;7.44;100.00
66547;BME280;53400;50.364;14.874;2023-11-21T12:25:23;98198.56;;;7.41;100.00
66547;BME280;53400;50.364;14.874;2023-11-21T12:27:52;98210.16;;;7.35;100.00
66547;BME280;53400;50.364;14.874;2023-11-21T12:30:22;98208.56;;;7.34;100.00
66547;BME280;53400;50.364;14.874;2023-11-21T12:32:49;98209.22;;;7.41;100.00
66547;BME280;53400;50.364;14.874;2023-11-21T12:35:19;98214.56;;;7.41;100.00
66547;BME280;53400;50.364;14.874;2023-11-21T12:37:57;98208.66;;;7.39;100.00
66547;BME280;53400;50.364;14.874;2023-11-21T12:40:28;98210.63;;;7.44;100.00
66547;BME280;53400;50.364;14.874;2023-11-21T12:42:56;98209.03;;;7.31;100.00
66547;BME280;53400;50.364;14.874;2023-11-21T12:45:24;98212.94;;;7.40;100.00
66547;BME280;53400;50.364;14.874;2023-11-21T12:47:58;98214.69;;;7.34;100.00
66547;BME280;53400;50.364;14.874;2023-11-21T12:50:31;98222.72;;;7.63;100.00
66547;BME280;53400;50.364;14.874;2023-11-21T12:53:02;98234.44;;;7.62;100.00
66547;BME280;53400;50.364;14.874;2023-11-21T12:55:35;98225.78;;;7.55;100.00
66547;BME280;53400;50.364;14.874;2023-11-21T12:58:05;98224.63;;;7.51;100.00
66547;BME280;53400;50.364;14.874;2023-11-21T13:00:46;98224.28;;;7.35;100.00
66547;BME280;53400;50.364;14.874;2023-11-21T13:03:13;98221.97;;;7.39;100.00